»·PEaware :: DAL1490 KSNA-KSFO

DAL1490 :: KSNA-KSFO

FLIGHT INFORMATION

Flight Status: Arrived
Operator:
Delta Air Lines
More flights by this operator :: More flights under this callsign
Pilot: William Bernard (10095)
Aircraft: AIRBUS A320
(A320)
More flights by this aircraft type
Origin: KSNA John Wayne-Orange Co
United States
Destination: KSFO San Francisco Intl
United States
More flights between these airports :: More routes between these airports
Route: +CHANL3 RZS STOKED SERFR SERFR2
File this flight plan on PilotEdge
Remarks:
Altitude:
(Current/Filed)
31,000ft
Speed:
(Current/Filed)
400kts
Departed: 09-Jan-17 03:42 PM
Arrived: 09-Jan-17 04:51 PM
Distance/Time
Traveled:
323nm/1:09
Distance/Time
To Go:
Arrived

Flight Plot

Page will automatically refresh every two minutes.

Flight plan parsing failed; only flown route is shown


Map Options




Map Legend


Flown Route
Filed Route
Departure Airport
Arrival Airport
Navaid (VOR, NDB)
Fix

Horizontal Profiles

Position Reports

Time Latitude Longitude Heading Altitude Ground
Speed
09-Jan-17 15:20 33.680698 -117.861510 138 70ft 0kts
09-Jan-17 15:21 33.680698 -117.861510 138 70ft 0kts
09-Jan-17 15:22 33.680698 -117.861510 138 70ft 0kts
09-Jan-17 15:23 33.680698 -117.861510 138 70ft 0kts
09-Jan-17 15:24 33.680698 -117.861510 138 70ft 0kts
09-Jan-17 15:25 33.680698 -117.861510 138 70ft 0kts
09-Jan-17 15:26 33.680698 -117.861510 138 70ft 0kts
09-Jan-17 15:27 33.680698 -117.861510 138 70ft 0kts
09-Jan-17 15:28 33.680698 -117.861510 138 70ft 0kts
09-Jan-17 15:29 33.680698 -117.861510 138 70ft 0kts
09-Jan-17 15:30 33.680698 -117.861510 138 70ft 0kts
09-Jan-17 15:31 33.680698 -117.861510 138 70ft 0kts
09-Jan-17 15:32 33.680698 -117.861510 138 70ft 0kts
09-Jan-17 15:33 33.680698 -117.861510 138 70ft 0kts
09-Jan-17 15:34 33.680952 -117.861775 138 70ft 2kts
09-Jan-17 15:35 33.681260 -117.862095 138 70ft 0kts
09-Jan-17 15:36 33.681259 -117.862094 138 70ft 0kts
09-Jan-17 15:37 33.681257 -117.862092 138 70ft 0kts
09-Jan-17 15:38 33.680581 -117.863022 299 70ft 10kts
09-Jan-17 15:39 33.680811 -117.863503 299 70ft 2kts
09-Jan-17 15:40 33.680653 -117.863173 299 70ft 0kts
09-Jan-17 15:41 33.681312 -117.865317 208 70ft 6kts
09-Jan-17 15:42 33.653167 -117.882848 195 1228ft 146kts
09-Jan-17 15:43 33.608891 -117.891860 189 2774ft 198kts
09-Jan-17 15:44 33.549732 -117.914877 202 4876ft 253kts
09-Jan-17 15:45 33.483283 -117.946085 206 9050ft 259kts
09-Jan-17 15:46 33.411688 -117.980911 208 11891ft 300kts
09-Jan-17 15:47 33.345739 -118.035954 249 14777ft 291kts
09-Jan-17 15:48 33.349100 -118.132616 270 15022ft 295kts
09-Jan-17 15:49 33.356596 -118.230337 272 16699ft 297kts
09-Jan-17 15:50 33.366165 -118.328918 272 16993ft 299kts
09-Jan-17 15:51 33.382237 -118.426309 298 16993ft 314kts
09-Jan-17 15:52 33.458630 -118.488646 313 16995ft 333kts
09-Jan-17 15:53 33.533560 -118.553421 314 17217ft 334kts
09-Jan-17 15:54 33.609946 -118.617811 313 20042ft 340kts
09-Jan-17 15:55 33.681649 -118.691235 301 22468ft 336kts
09-Jan-17 15:56 33.746163 -118.774624 303 24724ft 343kts
09-Jan-17 15:57 33.812301 -118.859851 303 26438ft 354kts
09-Jan-17 15:58 33.880254 -118.947564 303 27946ft 363kts
09-Jan-17 15:59 33.949701 -119.037391 303 29245ft 370kts
09-Jan-17 16:00 34.020304 -119.128768 303 30295ft 379kts
09-Jan-17 16:01 34.093682 -119.223355 302 31090ft 389kts
09-Jan-17 16:02 34.167792 -119.320349 302 31210ft 392kts
09-Jan-17 16:03 34.241813 -119.417107 302 31206ft 392kts
09-Jan-17 16:04 34.315614 -119.513911 302 31201ft 391kts
09-Jan-17 16:05 34.377218 -119.594709 302 31195ft 390kts
09-Jan-17 16:06 34.462729 -119.707362 302 31194ft 389kts
09-Jan-17 16:07 34.524236 -119.787204 306 31194ft 392kts
09-Jan-17 16:08 34.607612 -119.874474 308 31225ft 396kts
09-Jan-17 16:09 34.690554 -119.962698 308 31233ft 394kts
09-Jan-17 16:10 34.771181 -120.049289 308 31234ft 375kts
09-Jan-17 16:11 34.863179 -120.146986 309 31232ft 377kts
09-Jan-17 16:12 34.928939 -120.217093 309 31230ft 377kts
09-Jan-17 16:13 35.007594 -120.301457 309 31229ft 376kts
09-Jan-17 16:14 35.086567 -120.386304 309 31229ft 377kts
09-Jan-17 16:15 35.165110 -120.471098 309 31228ft 377kts
09-Jan-17 16:16 35.243598 -120.556002 309 31228ft 377kts
09-Jan-17 16:17 35.322025 -120.641050 309 31227ft 377kts
09-Jan-17 16:18 35.400229 -120.726005 308 31221ft 375kts
09-Jan-17 16:19 35.491378 -120.825181 310 31210ft 375kts
09-Jan-17 16:20 35.561176 -120.890013 313 31206ft 378kts
09-Jan-17 16:21 35.644807 -120.967693 312 31204ft 376kts
09-Jan-17 16:22 35.728004 -121.045170 312 31197ft 374kts
09-Jan-17 16:23 35.808744 -121.120820 312 31196ft 348kts
09-Jan-17 16:24 35.885859 -121.192789 313 31194ft 348kts
09-Jan-17 16:25 35.962911 -121.264975 313 31192ft 348kts
09-Jan-17 16:26 36.039076 -121.335475 312 30933ft 323kts
09-Jan-17 16:27 36.110404 -121.396871 315 29932ft 315kts
09-Jan-17 16:28 36.184001 -121.454545 314 28929ft 312kts
09-Jan-17 16:29 36.257014 -121.511764 314 27929ft 310kts
09-Jan-17 16:30 36.329789 -121.568803 314 26930ft 309kts
09-Jan-17 16:31 36.402347 -121.625706 314 25929ft 308kts
09-Jan-17 16:32 36.473617 -121.681673 313 24192ft 295kts
09-Jan-17 16:33 36.541067 -121.735124 313 22559ft 281kts
09-Jan-17 16:34 36.606253 -121.786804 313 21070ft 274kts
09-Jan-17 16:35 36.670238 -121.837694 314 19490ft 271kts
09-Jan-17 16:36 36.734027 -121.887979 318 18063ft 285kts
09-Jan-17 16:37 36.816937 -121.915070 334 16525ft 315kts
09-Jan-17 16:38 36.902230 -121.939511 335 14932ft 313kts
09-Jan-17 16:39 36.986276 -121.965975 331 13257ft 308kts
09-Jan-17 16:40 37.067688 -121.998809 333 11453ft 308kts
09-Jan-17 16:41 37.147137 -122.029896 335 9796ft 292kts
09-Jan-17 16:42 37.224500 -122.060432 338 7899ft 289kts
09-Jan-17 16:43 37.298306 -122.088519 337 6239ft 268kts
09-Jan-17 16:44 37.368282 -122.116082 337 5230ft 262kts
09-Jan-17 16:45 37.437533 -122.143399 337 4087ft 251kts
09-Jan-17 16:46 37.498210 -122.166520 337 4019ft 221kts
09-Jan-17 16:47 37.547230 -122.204518 298 2919ft 194kts
09-Jan-17 16:48 37.572652 -122.259849 291 1742ft 154kts
09-Jan-17 16:49 37.591947 -122.305776 291 964ft 148kts
09-Jan-17 16:50 37.611504 -122.352260 292 154ft 147kts
09-Jan-17 16:51 37.620307 -122.373253 299 27ft 25kts
09-Jan-17 16:52 37.622111 -122.379176 277 27ft 8kts
09-Jan-17 16:53 37.622165 -122.383794 263 27ft 22kts
09-Jan-17 16:54 37.620711 -122.387749 209 27ft 0kts
09-Jan-17 16:55 37.620709 -122.387750 209 27ft 0kts
09-Jan-17 16:56 37.620707 -122.387752 209 27ft 0kts
09-Jan-17 16:57 37.620705 -122.387753 209 27ft 0kts
09-Jan-17 16:58 37.620703 -122.387754 209 27ft 0kts
09-Jan-17 16:59 37.620701 -122.387756 209 27ft 0kts
09-Jan-17 17:00 37.620700 -122.387757 209 27ft 0kts
09-Jan-17 17:01 37.620698 -122.387759 209 27ft 0kts
09-Jan-17 17:02 37.620696 -122.387760 209 27ft 0kts
09-Jan-17 17:03 37.620694 -122.387761 209 27ft 0kts
09-Jan-17 17:04 37.620692 -122.387763 209 27ft 0kts
09-Jan-17 17:05 37.620690 -122.387764 209 27ft 0kts

Navigation Log

Ident Type Via Name
Flight plan parsing failed, navigation log unavailable